Omaha, Nebraska
Current Conditions -  °F | °C
As of 5:52 PM on Monday 24 Nov 2014 (Local Time) from KOMA Reporting Station
Clear Clear  
Wind Chill: -6°   Ceiling: Unl
Heat Index:   Visibility: 10mi
Dew Point: -11°   Wind: 16mph
Humidity: 45%   Direction: 320°NW
Pressure: 29.94"   Gusts: 25mph
Location:  41.26°N, 95.94°W
Report Text: KOMA 242352Z 32014G22KT 10SM CLR 00/M11 A2994 RMK AO2 PK WND 31028/2302 SLP149 T00001106 10028 21017 51046
Loading
Personal Weather Stations






























Interactive Weather Map New forecast layout! Learn more

10-Day Weather Forecast

Advertisements
Track Severe Weather on mobile